Time;durP1;ratioP1;P1;durP2;ratioP2;P2;SDS_P1;SDS_P2;PMS_P1;PMS_P2;Temp;Humidity;BMP_temperature;BMP_pressure;BME280_temperature;BME280_humidity;BME280_pressure;Samples;Min_cycle;Max_cycle;Signal;HPM_P1;HPM_P2
2022/06/21 00:01:28;;;;;;;;;11.25;9.25;;;;;21.31;47.96;100848.84;5031979;28;45180;-70
2022/06/21 00:03:54;;;;;;;;;8.67;8.67;;;;;21.41;48.04;100863.19;5031404;28;44925;-70
2022/06/21 00:06:22;;;;;;;;;10.00;10.00;;;;;21.34;47.94;100835.22;5032367;28;45173;-70
2022/06/21 00:08:48;;;;;;;;;10.67;10.67;;;;;21.39;47.83;100836.03;5031079;28;45037;-70
2022/06/21 00:11:20;;;;;;;;;12.00;12.00;;;;;21.33;48.07;100826.16;5032184;28;46149;-70
2022/06/21 00:13:46;;;;;;;;;14.75;12.50;;;;;21.40;48.24;100828.75;5032216;28;44940;-71
2022/06/21 00:16:14;;;;;;;;;16.50;14.50;;;;;21.27;48.00;100809.06;5026359;28;45037;-70
2022/06/21 00:18:42;;;;;;;;;14.25;12.25;;;;;21.48;47.72;100841.34;5031237;28;44997;-70
2022/06/21 00:21:32;;;;;;;;;13.75;13.25;;;;;21.49;47.58;100823.22;5031018;28;45712;-70
2022/06/21 00:23:57;;;;;;;;;16.25;15.50;;;;;21.45;47.60;100832.28;5030028;28;45354;-69
2022/06/21 00:26:26;;;;;;;;;16.00;16.00;;;;;21.28;47.61;100802.69;5030275;28;45182;-71
2022/06/21 00:28:52;;;;;;;;;17.75;16.00;;;;;21.21;47.87;100807.34;5031710;28;44909;-69
2022/06/21 00:31:19;;;;;;;;;12.00;10.25;;;;;21.26;47.77;100826.28;5032312;28;45451;-71
2022/06/21 00:33:46;;;;;;;;;21.50;18.00;;;;;21.13;47.80;100820.16;5029727;28;45110;-70
2022/06/21 00:36:36;;;;;;;;;18.25;15.50;;;;;21.11;48.39;100831.03;5028962;28;45192;-70
2022/06/21 00:39:03;;;;;;;;;16.25;16.00;;;;;21.13;48.38;100831.91;5029558;28;45044;-70
2022/06/21 00:41:48;;;;;;;;;15.75;15.00;;;;;20.98;48.23;100814.03;5031393;28;45076;-70
2022/06/21 00:44:38;;;;;;;;;12.25;10.50;;;;;21.07;48.57;100822.94;5030212;28;45031;-70
2022/06/21 00:47:14;;;;;;;;;14.25;14.25;;;;;21.04;48.48;100821.19;5028759;28;45437;-70
2022/06/21 00:49:52;;;;;;;;;12.50;12.50;;;;;21.06;48.34;100830.22;5030718;28;45095;-71
2022/06/21 00:52:24;;;;;;;;;13.50;13.00;;;;;21.01;48.55;100821.25;5031290;28;45450;-70
2022/06/21 00:55:03;;;;;;;;;17.25;12.00;;;;;20.98;48.50;100826.72;5028153;28;45103;-70
2022/06/21 00:57:58;;;;;;;;;13.50;12.50;;;;;20.90;48.44;100813.25;5030065;28;45080;-71
2022/06/21 01:00:31;;;;;;;;;15.50;12.25;;;;;20.93;48.48;100829.50;5021999;28;44930;-71
2022/06/21 01:02:59;;;;;;;;;12.50;11.25;;;;;20.92;48.36;100841.31;5030078;28;45204;-70
2022/06/21 01:05:28;;;;;;;;;13.50;11.75;;;;;20.87;48.39;100839.56;5030233;28;45299;-70
2022/06/21 01:07:57;;;;;;;;;13.50;12.00;;;;;20.86;48.34;100835.97;5031221;28;45150;-70
2022/06/21 01:10:23;;;;;;;;;13.25;12.25;;;;;20.86;48.67;100846.81;5031818;28;44922;-71
2022/06/21 01:13:01;;;;;;;;;14.00;13.67;;;;;20.88;48.49;100838.66;5028578;28;45702;-69
2022/06/21 01:15:31;;;;;;;;;9.25;9.25;;;;;20.74;48.55;100808.97;5030822;28;45106;-69
2022/06/21 01:18:06;;;;;;;;;13.50;13.00;;;;;20.80;48.61;100817.03;5031473;28;45106;-70
2022/06/21 01:20:34;;;;;;;;;12.25;11.75;;;;;20.90;48.38;100837.69;5026013;28;44994;-70
2022/06/21 01:23:10;;;;;;;;;12.50;11.75;;;;;20.88;48.33;100831.38;5026102;28;45622;-70
2022/06/21 01:26:01;;;;;;;;;15.50;15.50;;;;;20.74;48.57;100800.81;5030983;28;45132;-69
2022/06/21 01:28:27;;;;;;;;;9.25;9.25;;;;;20.52;48.48;100775.78;5029264;28;44971;-70
2022/06/21 01:30:56;;;;;;;;;13.25;12.25;;;;;20.90;48.43;100844.94;5031288;28;45279;-70
2022/06/21 01:33:30;;;;;;;;;11.67;10.33;;;;;20.47;48.22;100770.41;5029998;28;45681;-70
2022/06/21 01:36:00;;;;;;;;;11.00;11.00;;;;;20.86;48.27;100835.97;5029833;28;45180;-70
2022/06/21 01:38:32;;;;;;;;;14.00;11.00;;;;;20.46;48.38;100754.16;5031217;28;45180;-70
2022/06/21 01:41:08;;;;;;;;;9.25;9.00;;;;;20.91;48.34;100841.31;5034832;28;45125;-70
2022/06/21 01:43:37;;;;;;;;;11.33;9.67;;;;;20.88;48.07;100841.38;5030225;28;46316;-71
2022/06/21 01:46:10;;;;;;;;;9.33;9.33;;;;;20.69;48.10;100817.19;5032659;28;44973;-70
2022/06/21 01:48:40;;;;;;;;;10.67;10.67;;;;;20.85;48.44;100854.97;5034609;28;45238;-70
2022/06/21 01:51:11;;;;;;;;;9.33;8.67;;;;;20.86;48.31;100856.78;5035135;28;44926;-70
2022/06/21 01:53:39;;;;;;;;;11.00;7.33;;;;;20.60;48.25;100822.72;5034014;28;45240;-71
2022/06/21 01:56:09;;;;;;;;;13.33;10.33;;;;;20.85;48.27;100884.84;5033206;28;45246;-71
2022/06/21 01:58:41;;;;;;;;;10.00;10.00;;;;;20.80;48.40;100899.41;5033395;28;45060;-72
2022/06/21 02:01:45;;;;;;;;;10.00;10.00;;;;;20.82;48.65;100926.50;5033104;28;45435;-71
2022/06/21 02:04:15;;;;;;;;;12.33;11.33;;;;;20.74;48.32;100929.34;5027618;28;45201;-69
2022/06/21 02:06:44;;;;;;;;;9.67;9.00;;;;;20.77;48.79;100955.56;5033833;28;45064;-71
2022/06/21 02:09:32;;;;;;;;;11.75;10.50;;;;;20.77;48.49;100947.41;5035028;28;45173;-70
2022/06/21 02:12:11;;;;;;;;;8.00;8.00;;;;;20.77;48.67;100931.13;5032986;28;45423;-70
2022/06/21 02:14:43;;;;;;;;;11.00;11.00;;;;;20.47;48.61;100861.81;5030225;28;45835;-70
2022/06/21 02:17:22;;;;;;;;;12.00;12.00;;;;;20.66;48.76;100893.25;5033275;28;45322;-70
2022/06/21 02:20:01;;;;;;;;;10.75;9.25;;;;;20.83;48.54;100913.84;5033142;28;45779;-71
2022/06/21 02:22:29;;;;;;;;;11.00;9.00;;;;;20.85;48.52;100912.91;5029761;28;45239;-70
2022/06/21 02:24:55;;;;;;;;;10.33;9.67;;;;;20.78;48.56;100892.19;5030843;28;45558;-70
2022/06/21 02:27:25;;;;;;;;;14.00;10.67;;;;;20.86;48.55;100897.53;5033374;28;45136;-70
2022/06/21 02:29:54;;;;;;;;;6.00;6.00;;;;;20.83;48.48;100882.16;5028746;28;45671;-70
2022/06/21 02:32:30;;;;;;;;;11.00;8.00;;;;;20.69;48.69;100844.34;5047559;28;45150;-71
2022/06/21 02:35:03;;;;;;;;;9.67;9.67;;;;;20.85;48.68;100846.84;5032567;28;45291;-71
2022/06/21 02:37:30;;;;;;;;;9.75;9.75;;;;;20.75;48.33;100824.34;5032699;28;45186;-71
2022/06/21 02:39:58;;;;;;;;;7.67;7.67;;;;;20.82;48.52;100825.16;5030662;28;45337;-69
2022/06/21 02:42:31;;;;;;;;;9.67;9.33;;;;;20.81;48.18;100802.53;5030038;28;45094;-71
2022/06/21 02:45:15;;;;;;;;;12.67;10.33;;;;;20.77;48.35;100801.69;5029991;28;46003;-71
2022/06/21 02:47:44;;;;;;;;;10.75;10.00;;;;;20.81;48.18;100807.97;5027498;28;45294;-70
2022/06/21 02:50:22;;;;;;;;;13.67;12.67;;;;;20.92;48.27;100829.53;5028837;28;45220;-71
2022/06/21 02:52:50;;;;;;;;;15.00;13.50;;;;;20.93;48.52;100834.03;5024919;28;45375;-70
2022/06/21 02:55:28;;;;;;;;;14.25;11.75;;;;;20.91;48.12;100831.34;5029300;28;45485;-69
2022/06/21 02:58:21;;;;;;;;;12.67;12.33;;;;;20.88;48.51;100834.09;5030907;28;45010;-70
2022/06/21 03:00:47;;;;;;;;;11.50;11.50;;;;;20.84;48.22;100818.78;5030812;28;45311;-70
2022/06/21 03:03:20;;;;;;;;;10.33;10.33;;;;;20.74;48.45;100807.16;5030823;28;45078;-70
2022/06/21 03:05:50;;;;;;;;;19.00;14.00;;;;;20.69;48.35;100805.41;5022188;28;46458;-70
2022/06/21 03:08:17;;;;;;;;;17.50;17.50;;;;;20.80;48.75;100822.47;5030507;28;44962;-72
2022/06/21 03:10:46;;;;;;;;;10.67;10.67;;;;;20.67;48.65;100793.69;5032752;28;44936;-71
2022/06/21 03:13:11;;;;;;;;;11.50;10.50;;;;;20.74;48.79;100801.75;5029750;28;45392;-70
2022/06/21 03:15:38;;;;;;;;;11.50;9.75;;;;;20.71;49.46;100799.06;5030360;28;46139;-70
2022/06/21 03:18:11;;;;;;;;;19.50;12.50;;;;;20.67;49.56;100799.13;5029589;28;45113;-70
2022/06/21 03:20:37;;;;;;;;;11.25;11.25;;;;;20.69;50.29;100791.84;5027442;28;45320;-70
2022/06/21 03:23:05;;;;;;;;;9.50;8.00;;;;;20.61;49.69;100784.69;5033430;28;44934;-70
2022/06/21 03:25:44;;;;;;;;;11.50;11.50;;;;;20.55;50.02;100767.59;5031731;28;45939;-70
2022/06/21 03:28:26;;;;;;;;;8.00;7.50;;;;;20.55;50.21;100754.03;5031844;28;45228;-69
2022/06/21 03:31:07;;;;;;;;;16.50;15.00;;;;;20.56;50.05;100748.56;5028148;28;45318;-69
2022/06/21 03:33:35;;;;;;;;;14.00;11.50;;;;;20.51;49.79;100742.31;5029565;28;45347;-70
2022/06/21 03:36:05;;;;;;;;;11.25;10.75;;;;;20.45;49.79;100734.25;5032175;28;45140;-69
2022/06/21 03:38:31;;;;;;;;;11.00;10.33;;;;;20.42;49.96;100718.03;5032476;28;44898;-70
2022/06/21 03:43:57;;;;;;;;;10.50;10.50;;;;;20.17;50.17;100684.94;5031679;28;45204;-70
2022/06/21 03:46:32;;;;;;;;;11.50;9.50;;;;;20.22;50.16;100707.47;5028984;28;46485;-69
2022/06/21 03:49:04;;;;;;;;;11.00;11.00;;;;;20.17;50.79;100691.25;5031043;28;45175;-69
2022/06/21 03:51:34;;;;;;;;;10.75;9.50;;;;;20.25;51.35;100691.16;5029687;28;45136;-69
2022/06/21 03:54:24;;;;;;;;;11.75;11.00;;;;;20.27;52.21;100688.41;5031362;28;45175;-69
2022/06/21 03:56:56;;;;;;;;;8.75;8.00;;;;;20.27;51.75;100677.56;5030423;28;45563;-69
2022/06/21 03:59:31;;;;;;;;;8.75;8.75;;;;;20.18;51.55;100659.63;5031555;28;45185;-69
2022/06/21 04:02:10;;;;;;;;;11.00;9.50;;;;;20.19;51.84;100674.94;5030118;28;45195;-70
2022/06/21 04:04:46;;;;;;;;;12.00;9.75;;;;;20.04;52.69;100643.53;5028432;28;45087;-70
2022/06/21 04:07:25;;;;;;;;;9.67;8.33;;;;;19.95;52.09;100632.81;5031993;28;45258;-69
2022/06/21 04:10:04;;;;;;;;;10.50;9.50;;;;;19.98;52.24;100655.38;5030493;28;45382;-70
2022/06/21 04:12:34;;;;;;;;;9.25;8.50;;;;;19.94;53.18;100653.59;5026545;28;45025;-69
2022/06/21 04:15:12;;;;;;;;;7.33;7.00;;;;;19.95;52.47;100640.97;5031774;28;45008;-69
2022/06/21 04:17:50;;;;;;;;;12.75;9.25;;;;;19.93;53.09;100640.06;5031904;28;45238;-69
2022/06/21 04:20:26;;;;;;;;;14.25;12.75;;;;;19.88;53.49;100627.47;5029616;28;45182;-70
2022/06/21 04:23:01;;;;;;;;;15.50;11.75;;;;;19.92;53.53;100632.84;5032197;28;45077;-69
2022/06/21 04:25:35;;;;;;;;;12.25;10.25;;;;;19.95;53.27;100639.13;5032250;28;45148;-69
2022/06/21 04:28:20;;;;;;;;;15.75;13.25;;;;;19.93;54.44;100630.13;5028463;28;45228;-69
2022/06/21 04:31:21;;;;;;;;;14.00;12.67;;;;;19.81;55.93;100605.88;5027882;28;45026;-69
2022/06/21 04:33:55;;;;;;;;;13.50;11.00;;;;;19.43;55.04;100559.38;4998705;28;45114;-70
2022/06/21 04:36:30;;;;;;;;;13.50;11.00;;;;;19.73;55.31;100624.03;5026063;28;45292;-70
2022/06/21 04:39:11;;;;;;;;;11.00;11.00;;;;;19.62;55.29;100611.53;5030072;28;45784;-70
2022/06/21 04:41:48;;;;;;;;;12.50;11.00;;;;;19.65;56.38;100613.28;5027279;28;44923;-70
2022/06/21 04:44:25;;;;;;;;;9.25;9.25;;;;;19.62;55.42;100611.53;5031342;28;45057;-71
2022/06/21 04:47:19;;;;;;;;;10.00;10.00;;;;;19.65;55.05;100608.78;5031505;28;45752;-69
2022/06/21 04:49:52;;;;;;;;;10.25;10.25;;;;;19.12;55.45;100512.81;5025070;28;45599;-69
2022/06/21 04:52:27;;;;;;;;;13.50;10.75;;;;;19.49;55.23;100577.38;5029439;28;45175;-69
2022/06/21 04:54:52;;;;;;;;;11.00;9.33;;;;;19.64;55.90;100606.09;5027573;28;45163;-69
2022/06/21 04:57:22;;;;;;;;;9.50;7.75;;;;;19.65;55.20;100600.66;5029569;28;45752;-69
2022/06/21 05:00:03;;;;;;;;;11.00;10.00;;;;;19.53;55.92;100573.69;5030799;28;45402;-69
2022/06/21 05:02:36;;;;;;;;;12.00;10.75;;;;;19.66;56.16;100602.41;5026479;28;45133;-69
2022/06/21 05:05:12;;;;;;;;;12.00;11.75;;;;;19.67;56.00;100595.22;5011704;28;45148;-69
2022/06/21 05:07:47;;;;;;;;;19.25;11.75;;;;;19.56;57.52;100583.63;5024424;28;45005;-70
2022/06/21 05:10:23;;;;;;;;;13.25;11.50;;;;;19.58;56.63;100604.34;5025792;28;46479;-69
2022/06/21 05:12:51;;;;;;;;;14.75;14.00;;;;;19.15;56.21;100562.44;5027740;28;45155;-70
2022/06/21 05:15:21;;;;;;;;;11.50;11.50;;;;;19.44;56.75;100637.03;5036616;28;45206;-69
2022/06/21 05:18:00;;;;;;;;;11.25;10.75;;;;;19.04;56.70;100586.03;5034143;28;45105;-70
2022/06/21 05:20:30;;;;;;;;;16.00;14.50;;;;;19.42;56.60;100657.84;5031428;28;45579;-69
2022/06/21 05:22:58;;;;;;;;;18.50;17.50;;;;;19.47;57.12;100668.63;5037072;28;45044;-71
2022/06/21 05:25:37;;;;;;;;;23.75;21.50;;;;;19.51;57.10;100675.78;5036468;28;45254;-69
2022/06/21 05:28:12;;;;;;;;;14.50;12.50;;;;;19.57;56.70;100667.59;5028855;28;45099;-69
2022/06/21 05:30:41;;;;;;;;;15.00;13.75;;;;;19.61;55.96;100674.75;5029782;28;45439;-70
2022/06/21 05:33:17;;;;;;;;;12.00;12.00;;;;;19.61;56.43;100653.09;5035359;28;45123;-70
2022/06/21 05:35:43;;;;;;;;;11.25;10.00;;;;;19.64;56.27;100666.59;5036154;28;44973;-69
2022/06/21 05:38:19;;;;;;;;;12.00;12.00;;;;;19.75;56.12;100663.81;5036653;28;45041;-71
2022/06/21 05:41:29;;;;;;;;;12.75;11.25;;;;;19.83;55.65;100658.25;5035895;28;45287;-69
2022/06/21 05:44:00;;;;;;;;;18.50;14.75;;;;;19.55;55.87;100596.28;5033243;28;45350;-71
2022/06/21 05:46:29;;;;;;;;;15.50;14.25;;;;;19.94;56.00;100659.03;5031970;28;46843;-70
2022/06/21 05:48:56;;;;;;;;;17.25;17.00;;;;;19.91;55.89;100659.06;5034243;28;45248;-71
2022/06/21 05:51:32;;;;;;;;;14.00;11.75;;;;;19.88;55.40;100656.38;5033229;28;45637;-71
2022/06/21 05:54:06;;;;;;;;;11.25;11.25;;;;;19.92;56.33;100660.88;5031963;28;46792;-71
2022/06/21 05:56:34;;;;;;;;;12.25;12.25;;;;;19.94;54.68;100660.84;5031745;28;45142;-71
2022/06/21 05:59:12;;;;;;;;;92.33;86.00;;;;;20.03;55.68;100655.31;5032999;28;45219;-70
2022/06/21 06:01:43;;;;;;;;;17.00;17.00;;;;;20.12;54.71;100655.16;5033557;28;45406;-71
2022/06/21 06:04:28;;;;;;;;;13.50;13.50;;;;;20.01;55.05;100608.31;5026859;28;45350;-71
2022/06/21 06:06:57;;;;;;;;;12.50;12.50;;;;;20.23;54.32;100653.19;5030292;28;45326;-71
2022/06/21 06:09:30;;;;;;;;;40.25;33.50;;;;;20.29;54.22;100659.44;5036233;28;45057;-71
2022/06/21 06:12:14;;;;;;;;;23.75;19.50;;;;;20.27;53.73;100647.72;5033955;28;45623;-71
2022/06/21 06:14:44;;;;;;;;;14.00;13.00;;;;;20.28;53.69;100644.97;5024296;28;45868;-69
2022/06/21 06:17:44;;;;;;;;;20.00;19.00;;;;;20.33;54.35;100640.38;5031674;28;45319;-71
2022/06/21 06:20:25;;;;;;;;;13.50;13.50;;;;;20.34;54.13;100635.84;5035493;28;45341;-72
2022/06/21 06:23:07;;;;;;;;;14.75;13.50;;;;;20.30;54.16;100639.53;5036155;28;45564;-71
2022/06/21 06:25:39;;;;;;;;;21.50;19.75;;;;;20.34;54.92;100647.59;5026608;28;45015;-71
2022/06/21 06:28:20;;;;;;;;;16.00;16.00;;;;;20.36;54.79;100640.34;5033800;28;45097;-71
2022/06/21 06:30:51;;;;;;;;;18.25;16.50;;;;;20.43;54.36;100633.88;5034116;28;45672;-72
2022/06/21 06:33:52;;;;;;;;;12.50;12.50;;;;;20.43;53.77;100636.59;5033567;28;45943;-72
2022/06/21 06:36:21;;;;;;;;;14.00;13.25;;;;;20.33;53.20;100643.09;5026532;28;45687;-72
2022/06/21 06:38:47;;;;;;;;;17.00;13.50;;;;;20.21;53.69;100645.97;5018379;28;45501;-71
2022/06/21 06:41:30;;;;;;;;;16.50;14.75;;;;;20.17;53.50;100658.69;5024518;28;45382;-69
2022/06/21 06:44:13;;;;;;;;;20.00;15.25;;;;;20.07;53.98;100646.19;5036458;28;46663;-71
2022/06/21 06:46:51;;;;;;;;;15.25;14.25;;;;;20.09;53.69;100621.75;5015699;28;45446;-71
2022/06/21 06:49:19;;;;;;;;;16.75;12.75;;;;;20.41;53.35;100664.69;5016267;28;45427;-73
2022/06/21 06:52:00;;;;;;;;;14.50;12.75;;;;;20.53;53.13;100677.16;5015736;28;45510;-70
2022/06/21 06:54:26;;;;;;;;;17.75;16.00;;;;;20.59;52.43;100674.31;5010072;28;45447;-69
2022/06/21 06:57:17;;;;;;;;;14.00;13.50;;;;;20.52;53.01;100667.22;5015746;28;45312;-71
2022/06/21 06:59:44;;;;;;;;;15.00;15.00;;;;;20.76;52.67;100688.56;5015147;28;45423;-70
2022/06/21 07:02:20;;;;;;;;;22.25;18.25;;;;;20.59;52.40;100647.19;5015902;28;45530;-71
2022/06/21 07:04:54;;;;;;;;;14.25;14.00;;;;;20.77;52.34;100674.09;5015116;28;45912;-72
2022/06/21 07:07:32;;;;;;;;;20.50;14.00;;;;;20.90;52.82;100674.75;5015359;28;45473;-70
2022/06/21 07:10:03;;;;;;;;;16.75;12.50;;;;;20.85;52.20;100692.94;5014873;28;45395;-71
2022/06/21 07:12:31;;;;;;;;;19.75;15.50;;;;;20.82;52.88;100692.09;5015569;28;45559;-71
2022/06/21 07:14:57;;;;;;;;;13.00;13.00;;;;;20.91;52.44;100694.66;5014906;28;46112;-71
2022/06/21 07:17:47;;;;;;;;;26.00;23.50;;;;;21.05;52.52;100695.34;5015128;28;45321;-71
2022/06/21 07:20:20;;;;;;;;;28.00;25.75;;;;;21.17;52.18;100703.25;5015041;28;45422;-72
2022/06/21 07:22:45;;;;;;;;;12.25;12.25;;;;;21.23;51.85;100699.50;5015712;28;45348;-71
2022/06/21 07:25:25;;;;;;;;;13.00;12.00;;;;;21.30;51.79;100703.94;5014987;28;46473;-71
2022/06/21 07:27:56;;;;;;;;;15.00;15.00;;;;;21.48;51.58;100707.22;5015323;28;45505;-71
2022/06/21 07:30:26;;;;;;;;;13.00;11.25;;;;;21.54;51.07;100708.00;5014891;28;45304;-71
2022/06/21 07:33:01;;;;;;;;;20.25;19.00;;;;;21.62;51.03;100691.56;5015229;28;45228;-70
2022/06/21 07:35:32;;;;;;;;;12.25;9.25;;;;;21.69;51.08;100700.47;5013920;28;45474;-70
2022/06/21 07:38:06;;;;;;;;;16.75;15.50;;;;;21.75;51.00;100703.09;5014413;28;45390;-71
2022/06/21 07:40:37;;;;;;;;;16.75;13.50;;;;;21.88;50.07;100709.16;5015045;28;45544;-71
2022/06/21 07:43:23;;;;;;;;;15.00;13.75;;;;;22.03;50.46;100711.56;5014849;28;45320;-71
2022/06/21 07:45:53;;;;;;;;;13.50;13.50;;;;;22.22;49.71;100714.78;5014626;28;46086;-71
2022/06/21 07:48:36;;;;;;;;;15.33;13.67;;;;;22.19;50.17;100712.13;5014672;28;45541;-71
2022/06/21 07:51:17;;;;;;;;;15.75;12.25;;;;;22.00;50.23;100687.13;5014910;28;45403;-70
2022/06/21 07:54:04;;;;;;;;;11.75;11.75;;;;;22.19;50.23;100706.69;5010275;28;45440;-71
2022/06/21 07:56:40;;;;;;;;;15.00;14.67;;;;;22.08;49.98;100703.28;5015100;28;45319;-70
2022/06/21 07:59:09;;;;;;;;;13.00;13.00;;;;;22.22;50.27;100720.22;5015091;28;45288;-69
2022/06/21 08:07:27;;;;;;;;;14.33;14.33;;;;;22.52;49.73;100717.75;5008278;28;45769;-70
2022/06/21 08:09:58;;;;;;;;;17.00;15.00;;;;;22.53;49.65;100694.13;5014535;28;45548;-71
2022/06/21 08:12:24;;;;;;;;;13.50;13.50;;;;;22.64;49.53;100712.00;5008539;28;45394;-71
2022/06/21 08:14:49;;;;;;;;;14.25;14.25;;;;;22.57;49.83;100710.38;5014447;28;45592;-71
2022/06/21 08:17:36;;;;;;;;;18.00;14.75;;;;;22.69;49.76;100711.00;5014338;28;46237;-71
2022/06/21 08:20:22;;;;;;;;;18.00;14.33;;;;;22.86;49.53;100713.31;5012822;28;45499;-70
2022/06/21 08:22:55;;;;;;;;;20.75;19.00;;;;;23.02;49.12;100711.09;5014646;28;45455;-71
2022/06/21 08:25:36;;;;;;;;;17.50;16.00;;;;;23.16;49.04;100717.09;5014713;28;45391;-70
2022/06/21 08:28:11;;;;;;;;;21.00;19.25;;;;;23.26;48.96;100728.66;5014164;28;45541;-71
2022/06/21 08:30:46;;;;;;;;;17.25;14.75;;;;;23.12;48.84;100718.13;5007574;28;45404;-70
2022/06/21 08:33:18;;;;;;;;;19.25;16.50;;;;;22.87;49.06;100680.59;5011680;28;45328;-72
2022/06/21 08:35:57;;;;;;;;;15.75;15.75;;;;;23.15;48.97;100737.13;5014476;28;45350;-71
2022/06/21 08:38:34;;;;;;;;;13.75;12.75;;;;;23.13;49.46;100736.25;5014106;28;45828;-71
2022/06/21 08:40:59;;;;;;;;;14.25;14.25;;;;;23.14;49.67;100740.78;5013855;28;45438;-70
2022/06/21 08:44:03;;;;;;;;;14.75;11.25;;;;;23.07;49.81;100745.50;5013867;28;45434;-71
2022/06/21 08:46:49;;;;;;;;;48.50;40.75;;;;;23.23;49.71;100737.81;5011202;28;45529;-71
2022/06/21 08:49:51;;;;;;;;;14.75;14.75;;;;;23.27;49.85;100734.06;5013845;28;45318;-71
2022/06/21 08:52:25;;;;;;;;;20.25;17.75;;;;;23.25;50.12;100744.13;5013220;28;45533;-70
2022/06/21 08:55:02;;;;;;;;;18.50;18.00;;;;;23.26;50.09;100726.81;5013993;28;45360;-70
2022/06/21 08:57:55;;;;;;;;;17.50;15.25;;;;;23.19;50.26;100717.91;5013780;28;45461;-69
2022/06/21 09:01:08;;;;;;;;;14.25;14.25;;;;;23.18;50.33;100721.59;5013402;28;46033;-71
2022/06/21 09:03:46;;;;;;;;;19.00;16.75;;;;;23.08;50.98;100724.56;5010492;28;45510;-72
2022/06/21 09:06:35;;;;;;;;;23.50;22.25;;;;;22.82;51.23;100705.22;5008741;28;45578;-71
2022/06/21 09:09:22;;;;;;;;;28.75;26.75;;;;;22.81;51.22;100689.78;5009919;28;45614;-71
2022/06/21 09:11:50;;;;;;;;;32.00;28.50;;;;;22.96;51.15;100714.84;5008935;28;46368;-69
2022/06/21 09:14:30;;;;;;;;;18.75;18.00;;;;;23.09;50.87;100710.91;5013283;28;45450;-71
2022/06/21 09:17:14;;;;;;;;;17.25;17.25;;;;;23.11;50.95;100711.75;5014009;28;45450;-69
2022/06/21 09:20:09;;;;;;;;;18.00;17.50;;;;;23.11;51.02;100709.03;5013648;28;45345;-72
2022/06/21 09:23:03;;;;;;;;;17.50;16.25;;;;;23.09;50.96;100712.75;5009199;28;46642;-70
2022/06/21 09:25:47;;;;;;;;;19.50;18.00;;;;;22.99;51.19;100715.66;5013663;28;45409;-70
2022/06/21 09:28:42;;;;;;;;;25.25;19.50;;;;;23.03;51.33;100719.22;5013600;28;45383;-71
2022/06/21 09:31:38;;;;;;;;;26.00;23.25;;;;;23.14;51.34;100719.88;5013985;28;45565;-72
2022/06/21 09:34:14;;;;;;;;;18.25;17.50;;;;;23.15;51.41;100720.78;5013696;28;46200;-74
2022/06/21 09:37:15;;;;;;;;;15.50;15.50;;;;;23.24;51.35;100716.91;5013198;28;45383;-70
2022/06/21 09:40:01;;;;;;;;;18.00;17.00;;;;;23.09;51.29;100667.31;5008311;28;45454;-70
2022/06/21 09:42:43;;;;;;;;;18.00;15.00;;;;;23.47;51.10;100708.09;5013927;28;45511;-70
2022/06/21 09:45:33;;;;;;;;;15.75;14.50;;;;;23.67;50.83;100702.09;5012845;28;46454;-73
2022/06/21 09:48:07;;;;;;;;;17.75;13.50;;;;;23.77;50.40;100698.13;5008606;28;46144;-72
2022/06/21 09:50:40;;;;;;;;;18.00;18.00;;;;;23.84;50.30;100704.34;5012596;28;45506;-70
2022/06/21 09:53:13;;;;;;;;;19.75;17.00;;;;;23.82;50.31;100709.84;5012584;28;45471;-71
2022/06/21 09:56:00;;;;;;;;;16.33;15.00;;;;;23.73;50.34;100663.72;5013113;28;46261;-70
2022/06/21 09:59:01;;;;;;;;;17.50;17.25;;;;;24.11;50.04;100691.72;5007481;28;45419;-70
2022/06/21 10:01:44;;;;;;;;;15.75;15.75;;;;;24.25;49.59;100681.28;5014841;28;45703;-70
2022/06/21 10:04:37;;;;;;;;;18.00;15.25;;;;;24.29;48.80;100687.53;5016788;28;45423;-71
2022/06/21 10:07:16;;;;;;;;;18.50;17.25;;;;;23.87;49.47;100626.03;5016204;28;45463;-70
2022/06/21 10:10:21;;;;;;;;;35.25;31.00;;;;;24.36;49.19;100677.31;5016616;28;45563;-71
2022/06/21 10:13:17;;;;;;;;;20.25;19.25;;;;;24.47;49.00;100676.00;5013015;28;45395;-71
2022/06/21 10:15:56;;;;;;;;;21.50;19.00;;;;;24.60;48.21;100675.63;4995728;28;45361;-71
2022/06/21 10:18:42;;;;;;;;;22.75;19.00;;;;;24.73;47.88;100674.31;5015105;28;46419;-72
2022/06/21 10:21:16;;;;;;;;;18.33;16.33;;;;;24.84;48.06;100661.13;5015958;28;45426;-73
2022/06/21 10:24:14;;;;;;;;;26.50;22.75;;;;;24.86;47.82;100647.41;5016690;28;45450;-71
2022/06/21 10:27:07;;;;;;;;;18.75;18.75;;;;;24.98;47.25;100646.13;5016055;28;45578;-70
2022/06/21 10:29:59;;;;;;;;;20.50;20.50;;;;;25.06;47.26;100654.03;5015512;28;46561;-73
2022/06/21 10:32:44;;;;;;;;;19.50;16.50;;;;;25.18;47.29;100645.41;5011155;28;45469;-71
2022/06/21 10:35:19;;;;;;;;;19.50;19.50;;;;;24.98;46.78;100588.72;5016601;28;45506;-73
2022/06/21 10:38:14;;;;;;;;;33.00;29.00;;;;;25.36;46.79;100633.84;5015991;28;45302;-72
2022/06/21 10:41:00;;;;;;;;;25.50;22.00;;;;;25.43;46.30;100636.34;5012510;28;46014;-71
2022/06/21 10:43:40;;;;;;;;;23.50;19.75;;;;;25.22;46.20;100610.66;5016101;28;45601;-71
2022/06/21 10:46:44;;;;;;;;;15.67;15.67;;;;;25.45;46.22;100628.97;5015823;28;45382;-72
2022/06/21 10:49:28;;;;;;;;;26.00;19.50;;;;;25.43;46.11;100631.75;5015400;28;45553;-72
2022/06/21 10:52:26;;;;;;;;;17.33;17.33;;;;;25.45;46.17;100623.50;5014954;28;45660;-71
2022/06/21 10:55:29;;;;;;;;;22.75;22.25;;;;;25.43;46.30;100629.03;5013173;28;45426;-71
2022/06/21 10:58:00;;;;;;;;;20.25;15.50;;;;;25.40;46.13;100623.66;5015790;28;45337;-72
2022/06/21 11:03:30;;;;;;;;;20.00;17.50;;;;;25.42;46.23;100615.41;5015758;28;45802;-71
2022/06/21 11:06:34;;;;;;;;;19.25;19.25;;;;;25.53;46.18;100614.03;5009520;28;45229;-72
2022/06/21 11:09:03;;;;;;;;;19.50;16.75;;;;;25.50;46.05;100610.53;5012668;28;45371;-70
2022/06/21 11:11:40;;;;;;;;;15.50;15.50;;;;;25.46;45.85;100617.06;5015249;28;45482;-72
2022/06/21 11:14:20;;;;;;;;;16.50;16.50;;;;;25.48;46.12;100612.44;5009073;28;45553;-71
2022/06/21 11:16:51;;;;;;;;;18.25;18.25;;;;;25.53;46.03;100615.91;5015048;28;45449;-71
2022/06/21 11:19:33;;;;;;;;;20.00;18.33;;;;;25.51;46.55;100604.13;5015140;28;45340;-72
2022/06/21 11:22:25;;;;;;;;;39.25;32.75;;;;;25.65;46.16;100609.94;5012692;28;45631;-71
2022/06/21 11:25:20;;;;;;;;;21.25;18.25;;;;;25.69;45.60;100599.75;5015101;28;46577;-72
2022/06/21 11:28:13;;;;;;;;;25.25;23.00;;;;;25.72;45.74;100606.03;5013658;28;45383;-71
2022/06/21 11:30:49;;;;;;;;;19.33;18.33;;;;;25.81;45.75;100602.03;5014955;28;45397;-72
2022/06/21 11:33:35;;;;;;;;;14.67;14.67;;;;;25.84;45.99;100601.03;5015113;28;45431;-71
2022/06/21 11:36:18;;;;;;;;;13.00;13.00;;;;;25.92;45.65;100610.72;5014664;28;45559;-73
2022/06/21 11:39:19;;;;;;;;;18.00;14.67;;;;;25.91;45.80;100588.88;5014461;28;45669;-72
2022/06/21 11:42:06;;;;;;;;;16.33;15.33;;;;;26.08;45.57;100601.91;5012219;28;45429;-71
2022/06/21 11:45:08;;;;;;;;;21.00;17.00;;;;;26.05;45.05;100608.44;5014863;28;45435;-74
2022/06/21 11:47:53;;;;;;;;;24.25;22.75;;;;;25.87;45.62;100595.41;5014222;28;45658;-71
2022/06/21 11:50:25;;;;;;;;;14.67;14.67;;;;;25.89;45.48;100601.75;5014365;28;45958;-72
2022/06/21 11:53:24;;;;;;;;;19.00;17.33;;;;;25.82;46.06;100591.97;5014654;28;45245;-71
2022/06/21 11:56:19;;;;;;;;;16.67;16.33;;;;;25.92;45.58;100599.78;5015021;28;45496;-72
2022/06/21 11:58:51;;;;;;;;;15.00;15.00;;;;;26.00;45.60;100604.06;5014277;28;46109;-71
2022/06/21 12:01:26;;;;;;;;;35.00;28.50;;;;;26.08;45.24;100610.13;5015064;28;45421;-71
2022/06/21 12:04:33;;;;;;;;;19.25;17.50;;;;;26.07;44.92;100612.00;5011392;28;45611;-71
2022/06/21 12:07:23;;;;;;;;;20.75;17.00;;;;;26.06;45.01;100599.25;5013848;28;45378;-72
2022/06/21 12:10:02;;;;;;;;;19.00;17.67;;;;;26.11;45.19;100607.28;4996894;28;46534;-71
2022/06/21 12:12:54;;;;;;;;;17.33;16.67;;;;;26.14;45.33;100598.94;5007557;28;45319;-70